Avon, CO (81620)

9:34 AM MDT on September 01, 2014 (GMT -0600)
WildRidge - Neighborhood | Change Station
CLOSE
Current Station
Personal Weather Station
Location: Avon, CO
Elevation: 8156 ft
Nearby Weather Stations

Elev 8156 ft 39.66 °N, 106.55 °W | Updated 4 minutes ago

Clear
Clear
50.1 °F
Feels Like 50.1 °F
N
0.0
Wind Variable Wind from SE
Gusts 1.0 mph

Today
High -- | Low -- °F
--% Chance of Precip.
Yesterday
High -- | Low -- °F
Precip. -- in
6:34 AM 7:37 PM
Waxing Crescent, 41% visible
Pressure 30.22 in
Visibility 10.0 miles
Clouds Clear
Dew Point 41 °F
Humidity 70%
Rainfall 0.00 in
Snow Depth 12 in , 87 in , 0 in
UV 2 out of 12
Pollen 9.90 out of 12
Air Quality Not available.
Flu Activity Not available.
METAR KEGE 011450Z 00000KT 10SM SKC 09/06 A3022

More Conditions Fewer Conditions

Pressure 30.22 in
Visibility 10.0 miles
Clouds Clear
Dew Point 41 °F
Humidity 70%
Rainfall 0.00 in
Snow Depth 12 in , 87 in , 0 in
UV 2 out of 12
Pollen 9.90 out of 12
Air Quality Not available.
Flu Activity Not available.
METAR KEGE 011450Z 00000KT 10SM SKC 09/06 A3022

More Conditions Fewer Conditions

10-Day Weather Forecast

Almanac

Astronomy

Sep. 01, 2014 Rise Set
Actual Time 6:34 AM MDT 7:37 PM MDT
Civil Twilight 6:06 AM MDT 8:04 PM MDT
Nautical Twilight 5:33 AM MDT 8:37 PM MDT
Astronomical Twilight 4:59 AM MDT 9:11 PM MDT
Moon 1:21 PM MDT 11:41 PM MDT
Length of Visible Light 13h 57m
Length of Day
13h 02m
Tomorrow will be 2m 30s shorter.
Waxing Crescent, 41% of the Moon is Illuminated
Today
Waxing Crescent
Sep 2
First Quarter
Sep 8
Full
Sep 15
Last Quarter
Sep 24
New

Today's Extremes

State Highs State Lows

Community

WunderPhotos

Upload Photos

1,749,276 photos uploaded!

Nearby

Snow Depth

Station Depth Elevation
Mccoy Park 12 in 9480 ft
Vail Mountain 87 in 10300 ft
Summit Ranch 0 in 9400 ft
Copper Mountain 0 in 10500 ft
Kiln 1 in 9600 ft

Earthquake Activity

City Distance Mag. Time & Date
No recent earthquake activity has been reported nearby.
Minimum magnitude displayed is 2.5.

Coastal Water Temperatures

Place Temperature
No Stations Reporting

Nearby Weather Stations